Time;durP1;ratioP1;P1;durP2;ratioP2;P2;SDS_P1;SDS_P2;PMS_P1;PMS_P2;Temp;Humidity;BMP_temperature;BMP_pressure;BME280_temperature;BME280_humidity;BME280_pressure;Samples;Min_cycle;Max_cycle;Signal;HPM_P1;HPM_P2
2021/06/21 00:00:56;;;;;;;5.72;2.00;;;23.60;62.90;;;;;;5015735;28;20045;-42
2021/06/21 00:03:22;;;;;;;4.50;1.50;;;23.60;63.10;;;;;;5016124;28;20026;-42
2021/06/21 00:05:49;;;;;;;4.82;1.40;;;23.60;63.20;;;;;;5019667;28;20264;-43
2021/06/21 00:08:15;;;;;;;2.65;1.50;;;23.50;63.10;;;;;;5019168;28;20030;-43
2021/06/21 00:10:41;;;;;;;2.67;1.60;;;23.50;63.40;;;;;;5019969;28;20281;-41
2021/06/21 00:13:07;;;;;;;4.90;1.88;;;23.50;63.50;;;;;;5019369;28;20366;-43
2021/06/21 00:15:33;;;;;;;6.07;1.65;;;23.50;63.80;;;;;;5019364;28;20072;-42
2021/06/21 00:17:59;;;;;;;3.45;1.70;;;23.50;63.80;;;;;;5019011;28;20110;-43
2021/06/21 00:20:26;;;;;;;4.00;1.45;;;23.50;64.00;;;;;;5019509;28;20338;-42
2021/06/21 00:22:53;;;;;;;3.45;1.42;;;23.40;64.00;;;;;;5019135;28;20096;-43
2021/06/21 00:25:20;;;;;;;4.95;1.85;;;23.40;64.10;;;;;;5019300;28;20084;-42
2021/06/21 00:27:47;;;;;;;4.53;1.83;;;23.40;64.10;;;;;;5019096;28;20034;-44
2021/06/21 00:30:15;;;;;;;9.93;1.70;;;23.40;64.30;;;;;;5019140;28;20430;-43
2021/06/21 00:32:42;;;;;;;2.53;1.35;;;23.30;64.30;;;;;;5018811;28;20053;-43
2021/06/21 00:35:09;;;;;;;3.95;1.60;;;23.30;64.40;;;;;;5019218;28;20101;-42
2021/06/21 00:37:35;;;;;;;5.30;2.00;;;23.30;64.50;;;;;;5018915;28;20025;-43
2021/06/21 00:40:02;;;;;;;3.75;1.90;;;23.30;64.70;;;;;;5019294;28;20394;-43
2021/06/21 00:42:28;;;;;;;3.92;1.70;;;23.20;64.90;;;;;;5018785;28;20030;-42
2021/06/21 00:44:54;;;;;;;3.67;1.50;;;23.20;64.90;;;;;;5019091;28;20017;-43
2021/06/21 00:47:19;;;;;;;5.05;2.13;;;23.20;65.10;;;;;;5018433;28;20076;-45
2021/06/21 00:49:45;;;;;;;2.22;1.63;;;23.10;65.10;;;;;;5019146;28;20521;-45
2021/06/21 00:52:15;;;;;;;6.35;1.75;;;23.10;65.20;;;;;;5018941;28;20034;-43
2021/06/21 00:54:42;;;;;;;2.30;1.30;;;23.10;65.30;;;;;;5019038;28;20030;-43
2021/06/21 00:57:08;;;;;;;2.60;1.55;;;23.10;65.40;;;;;;5018031;28;20041;-45
2021/06/21 00:59:34;;;;;;;4.65;1.88;;;23.00;65.50;;;;;;5018789;28;20057;-43
2021/06/21 01:02:00;;;;;;;4.15;1.45;;;23.00;65.40;;;;;;5018590;28;20420;-43
2021/06/21 01:04:26;;;;;;;2.20;1.42;;;23.00;65.30;;;;;;5018434;28;20029;-43
2021/06/21 01:06:51;;;;;;;2.88;1.50;;;23.00;65.30;;;;;;5018628;28;20037;-42
2021/06/21 01:09:17;;;;;;;3.63;1.70;;;23.00;65.50;;;;;;5018555;28;20334;-42
2021/06/21 01:12:10;;;;;;;10.88;1.92;;;22.90;65.50;;;;;;5018479;28;20292;-43
2021/06/21 01:14:43;;;;;;;3.15;1.40;;;22.90;65.40;;;;;;5017917;28;20092;-43
2021/06/21 01:17:21;;;;;;;3.70;1.67;;;22.90;65.50;;;;;;5018268;28;20082;-43
2021/06/21 01:20:05;;;;;;;2.58;1.60;;;22.90;65.40;;;;;;5018354;28;20026;-43
2021/06/21 01:22:59;;;;;;;3.17;1.42;;;22.80;65.60;;;;;;5017810;28;20452;-42
2021/06/21 01:25:54;;;;;;;3.17;1.52;;;22.80;65.80;;;;;;5017890;28;20026;-44
2021/06/21 01:28:47;;;;;;;4.10;1.70;;;22.80;65.60;;;;;;5008945;28;20117;-43
2021/06/21 01:31:20;;;;;;;2.83;1.70;;;22.70;65.80;;;;;;5011443;28;20037;-44
2021/06/21 01:33:48;;;;;;;4.22;1.70;;;22.80;66.00;;;;;;5018022;28;20084;-43
2021/06/21 01:36:16;;;;;;;4.68;1.50;;;22.70;66.10;;;;;;5018101;28;20022;-45
2021/06/21 01:38:54;;;;;;;2.00;1.75;;;22.70;66.30;;;;;;5017548;28;20430;-44
2021/06/21 01:41:25;;;;;;;4.60;2.00;;;22.60;66.20;;;;;;5017779;28;20026;-42
2021/06/21 01:43:54;;;;;;;4.85;1.50;;;22.60;66.30;;;;;;5017622;28;20369;-45
2021/06/21 01:46:24;;;;;;;2.85;1.90;;;22.60;66.40;;;;;;5017938;28;20030;-42
2021/06/21 01:48:52;;;;;;;;;;;22.60;66.30;;;;;;5017853;28;20351;-41
2021/06/21 01:51:19;;;;;;;3.40;1.52;;;22.50;66.10;;;;;;5017966;28;19913;-42
2021/06/21 01:53:47;;;;;;;4.00;1.92;;;22.50;66.40;;;;;;5017465;28;20029;-42
2021/06/21 01:56:35;;;;;;;5.95;1.90;;;22.50;66.60;;;;;;5017774;28;20310;-43
2021/06/21 01:59:04;;;;;;;4.93;1.80;;;22.50;66.60;;;;;;5017504;28;20442;-41
2021/06/21 02:01:35;;;;;;;4.38;1.77;;;22.50;67.00;;;;;;5017415;28;20054;-42
2021/06/21 02:04:04;;;;;;;1.88;1.70;;;22.50;67.20;;;;;;5017630;28;20029;-44
2021/06/21 02:06:32;;;;;;;2.08;1.70;;;22.50;67.40;;;;;;5017448;28;20108;-43
2021/06/21 02:09:00;;;;;;;4.70;1.88;;;22.50;67.70;;;;;;5017484;28;20466;-43
2021/06/21 02:11:27;;;;;;;3.08;1.95;;;22.40;67.60;;;;;;5017615;28;20022;-43
2021/06/21 02:13:54;;;;;;;5.50;1.70;;;22.40;67.70;;;;;;5017192;28;20049;-43
2021/06/21 02:16:21;;;;;;;1.85;1.67;;;22.40;67.80;;;;;;5017282;28;20022;-45
2021/06/21 02:18:49;;;;;;;14.30;2.13;;;22.40;67.90;;;;;;5016834;28;20053;-44
2021/06/21 02:21:17;;;;;;;15.70;1.98;;;22.40;67.90;;;;;;5016988;28;20092;-46
2021/06/21 02:23:43;;;;;;;3.05;1.85;;;22.40;68.00;;;;;;5017068;28;20030;-44
2021/06/21 02:26:10;;;;;;;4.18;2.00;;;22.40;68.20;;;;;;5016284;28;20026;-42
2021/06/21 02:28:37;;;;;;;3.20;1.95;;;22.40;68.20;;;;;;5016532;28;20034;-43
2021/06/21 02:31:05;;;;;;;4.13;1.80;;;22.30;68.10;;;;;;5016990;28;20053;-42
2021/06/21 02:33:32;;;;;;;10.65;1.95;;;22.40;68.20;;;;;;5016473;28;20022;-42
2021/06/21 02:35:58;;;;;;;5.50;2.03;;;22.40;68.30;;;;;;5016930;28;20417;-42
2021/06/21 02:38:24;;;;;;;4.55;1.70;;;22.40;68.40;;;;;;5016284;28;20037;-42
2021/06/21 02:40:50;;;;;;;3.08;1.75;;;22.40;68.20;;;;;;5017113;28;20030;-44
2021/06/21 02:43:16;;;;;;;3.05;1.85;;;22.40;68.20;;;;;;5016481;28;20440;-42
2021/06/21 02:45:42;;;;;;;2.72;2.03;;;22.40;68.20;;;;;;5016623;28;20053;-42
2021/06/21 02:48:09;;;;;;;7.20;2.10;;;22.40;68.40;;;;;;5016502;28;20034;-42
2021/06/21 02:50:38;;;;;;;3.97;1.75;;;22.50;68.30;;;;;;5016886;28;20025;-42
2021/06/21 02:53:31;;;;;;;5.95;1.75;;;22.50;68.30;;;;;;5016128;28;20037;-42
2021/06/21 02:56:03;;;;;;;4.68;2.13;;;22.50;68.00;;;;;;5016519;28;20072;-42
2021/06/21 02:58:37;;;;;;;2.97;1.90;;;22.50;68.30;;;;;;5016125;28;20263;-42
2021/06/21 03:01:06;;;;;;;3.10;1.80;;;22.50;68.20;;;;;;5016522;28;20025;-42
2021/06/21 03:03:36;;;;;;;3.15;2.08;;;22.50;68.10;;;;;;5016122;28;20026;-43
2021/06/21 03:06:04;;;;;;;3.55;1.77;;;22.60;68.30;;;;;;5016672;28;20079;-42
2021/06/21 03:08:30;;;;;;;7.32;2.42;;;22.60;68.10;;;;;;5016129;28;20038;-43
2021/06/21 03:10:57;;;;;;;3.95;2.15;;;22.60;68.00;;;;;;5016349;28;20037;-45
2021/06/21 03:13:24;;;;;;;3.97;2.15;;;22.60;67.70;;;;;;5015671;28;20046;-43
2021/06/21 03:15:51;;;;;;;4.82;2.60;;;22.60;67.60;;;;;;5016383;28;20029;-43
2021/06/21 03:18:20;;;;;;;5.88;2.20;;;22.70;67.40;;;;;;5015607;28;20036;-42
2021/06/21 03:20:50;;;;;;;6.20;2.13;;;22.70;67.40;;;;;;5031265;28;20129;-41
2021/06/21 03:23:16;;;;;;;8.75;2.60;;;22.70;67.20;;;;;;5015907;28;20418;-42
2021/06/21 03:25:42;;;;;;;4.68;2.20;;;22.80;67.20;;;;;;5016282;28;20129;-42
2021/06/21 03:28:12;;;;;;;5.30;2.50;;;22.80;67.30;;;;;;5015930;28;20049;-41
2021/06/21 03:30:50;;;;;;;5.13;2.35;;;22.80;67.20;;;;;;5016379;28;20116;-42
2021/06/21 03:33:16;;;;;;;6.15;2.60;;;22.90;67.20;;;;;;5015694;28;20053;-42
2021/06/21 03:35:42;;;;;;;7.10;2.50;;;22.90;67.20;;;;;;5015997;28;20334;-43
2021/06/21 03:38:15;;;;;;;5.75;2.88;;;22.90;67.10;;;;;;5015381;28;20030;-43
2021/06/21 03:40:45;;;;;;;5.82;2.30;;;23.00;67.00;;;;;;5015941;28;20116;-42
2021/06/21 03:43:22;;;;;;;5.53;3.55;;;23.00;67.10;;;;;;5030698;28;20410;-42
2021/06/21 03:45:49;;;;;;;5.55;2.88;;;23.00;67.10;;;;;;5016089;28;20338;-43
2021/06/21 03:48:15;;;;;;;6.65;2.58;;;23.10;66.90;;;;;;5015529;28;20073;-42
2021/06/21 03:50:41;;;;;;;3.90;2.30;;;23.10;66.80;;;;;;5015869;28;20045;-43
2021/06/21 03:53:07;;;;;;;2.97;2.00;;;23.10;66.80;;;;;;5015473;28;20030;-45
2021/06/21 03:55:33;;;;;;;5.30;2.17;;;23.10;66.80;;;;;;5015923;28;20377;-43
2021/06/21 03:57:59;;;;;;;7.57;2.53;;;23.20;66.90;;;;;;5015620;28;20321;-44
2021/06/21 04:00:28;;;;;;;7.32;2.58;;;23.20;67.00;;;;;;5015874;28;20084;-41
2021/06/21 04:02:56;;;;;;;6.20;2.40;;;23.20;67.20;;;;;;5015090;28;20084;-42
2021/06/21 04:05:23;;;;;;;3.70;2.00;;;23.30;67.20;;;;;;5015743;28;20331;-41
2021/06/21 04:07:49;;;;;;;8.30;2.40;;;23.30;66.90;;;;;;5015542;28;20330;-42
2021/06/21 04:10:18;;;;;;;3.65;2.22;;;23.30;66.80;;;;;;5015722;28;20036;-43
2021/06/21 04:12:49;;;;;;;5.30;2.27;;;23.40;67.00;;;;;;5015899;28;20026;-43
2021/06/21 04:15:17;;;;;;;3.50;1.98;;;23.40;67.20;;;;;;5015483;28;20271;-42
2021/06/21 04:17:43;;;;;;;3.95;2.22;;;23.40;67.50;;;;;;5015315;28;20331;-43
2021/06/21 04:20:13;;;;;;;8.23;2.38;;;23.50;67.90;;;;;;5015577;28;20077;-41
2021/06/21 04:22:39;;;;;;;8.20;2.60;;;23.50;67.80;;;;;;5015043;28;20376;-46
2021/06/21 04:25:07;;;;;;;3.38;2.13;;;23.50;67.60;;;;;;5015604;28;20033;-43
2021/06/21 04:27:33;;;;;;;8.13;2.60;;;23.60;67.70;;;;;;5015040;28;20049;-45
2021/06/21 04:29:59;;;;;;;3.80;2.20;;;23.60;67.50;;;;;;5015218;28;20030;-44
2021/06/21 04:32:24;;;;;;;7.30;4.68;;;23.60;67.50;;;;;;5014997;28;20456;-44
2021/06/21 04:34:50;;;;;;;12.63;3.17;;;23.70;67.70;;;;;;5015485;28;20426;-44
2021/06/21 04:37:16;;;;;;;5.85;2.60;;;23.70;67.60;;;;;;5015313;28;20030;-41
2021/06/21 04:39:41;;;;;;;4.18;2.45;;;23.70;67.60;;;;;;5015357;28;20068;-44
2021/06/21 04:42:07;;;;;;;4.35;2.10;;;23.80;67.60;;;;;;5015424;28;20022;-44
2021/06/21 04:44:33;;;;;;;7.50;2.40;;;23.80;67.60;;;;;;5015381;28;20076;-43
2021/06/21 04:46:59;;;;;;;3.20;2.28;;;23.90;67.60;;;;;;5015217;28;20041;-44
2021/06/21 04:49:25;;;;;;;2.97;2.33;;;23.90;67.30;;;;;;5015746;28;20034;-44
2021/06/21 04:51:51;;;;;;;7.25;2.80;;;23.90;67.00;;;;;;5018596;28;20033;-43
2021/06/21 04:54:17;;;;;;;10.15;8.48;;;24.00;66.60;;;;;;5018545;28;20038;-41
2021/06/21 04:56:43;;;;;;;3.95;3.22;;;24.00;66.50;;;;;;5018718;28;20030;-42
2021/06/21 04:59:09;;;;;;;4.05;2.70;;;24.10;66.70;;;;;;5018471;28;20038;-43
2021/06/21 05:01:34;;;;;;;5.18;2.35;;;24.10;66.70;;;;;;5018441;28;20068;-43
2021/06/21 05:04:01;;;;;;;7.32;2.30;;;24.10;66.80;;;;;;5018607;28;20030;-42
2021/06/21 05:06:27;;;;;;;9.27;3.08;;;24.20;66.40;;;;;;5018459;28;20083;-43
2021/06/21 05:08:54;;;;;;;5.50;2.80;;;24.20;66.00;;;;;;5018143;28;20049;-41
2021/06/21 05:11:20;;;;;;;12.57;7.55;;;24.20;65.90;;;;;;5018268;28;20031;-41
2021/06/21 05:13:46;;;;;;;7.32;3.10;;;24.30;66.00;;;;;;5018119;28;20038;-41
2021/06/21 05:16:11;;;;;;;5.10;2.70;;;24.30;66.20;;;;;;5018377;28;20390;-44
2021/06/21 05:18:38;;;;;;;8.77;3.45;;;24.30;66.20;;;;;;5018005;28;20033;-41
2021/06/21 05:21:04;;;;;;;8.80;3.60;;;24.40;65.90;;;;;;5018204;28;20366;-41
2021/06/21 05:23:30;;;;;;;9.10;2.83;;;24.40;66.00;;;;;;5017588;28;20056;-41
2021/06/21 05:25:56;;;;;;;7.63;3.00;;;24.40;66.00;;;;;;5018080;28;20058;-43
2021/06/21 05:28:22;;;;;;;6.60;2.55;;;24.50;65.70;;;;;;5017865;28;20092;-41
2021/06/21 05:30:47;;;;;;;5.68;2.88;;;24.50;65.50;;;;;;5018136;28;20346;-46
2021/06/21 05:33:14;;;;;;;7.07;2.75;;;24.60;65.40;;;;;;5017457;28;20034;-42
2021/06/21 05:35:41;;;;;;;7.25;2.53;;;24.60;65.40;;;;;;5018066;28;20068;-41
2021/06/21 05:38:07;;;;;;;7.22;2.53;;;24.60;65.50;;;;;;5017289;28;20096;-41
2021/06/21 05:40:33;;;;;;;4.20;2.72;;;24.60;65.20;;;;;;5017745;28;20121;-41
2021/06/21 05:42:58;;;;;;;4.15;2.58;;;24.70;65.20;;;;;;5017483;28;20113;-44
2021/06/21 05:45:24;;;;;;;7.25;3.15;;;24.70;65.50;;;;;;5017736;28;20092;-44
2021/06/21 05:47:50;;;;;;;10.27;3.67;;;24.70;65.60;;;;;;5017585;28;20092;-41
2021/06/21 05:50:16;;;;;;;8.27;3.08;;;24.70;65.30;;;;;;5017553;28;20457;-41
2021/06/21 05:52:42;;;;;;;4.70;2.67;;;24.80;65.40;;;;;;5016950;28;20032;-42
2021/06/21 05:55:08;;;;;;;5.40;2.80;;;24.80;65.40;;;;;;5032679;28;20033;-42
2021/06/21 05:57:34;;;;;;;3.83;2.47;;;24.80;65.40;;;;;;5016984;28;20038;-44
2021/06/21 06:00:00;;;;;;;7.25;3.00;;;24.90;65.10;;;;;;5017009;28;20026;-43
2021/06/21 06:02:26;;;;;;;10.45;5.13;;;24.90;64.70;;;;;;5016984;28;20029;-42
2021/06/21 06:04:52;;;;;;;4.90;3.30;;;24.90;64.70;;;;;;5017220;28;20025;-44
2021/06/21 06:07:18;;;;;;;6.00;3.53;;;25.00;64.70;;;;;;5012229;28;20346;-41
2021/06/21 06:09:44;;;;;;;9.77;3.70;;;25.00;64.70;;;;;;5016679;28;20030;-43
2021/06/21 06:12:10;;;;;;;4.85;3.38;;;25.00;64.70;;;;;;5015574;28;20104;-43
2021/06/21 06:14:36;;;;;;;7.75;2.80;;;25.00;64.50;;;;;;5017248;28;20433;-41
2021/06/21 06:17:02;;;;;;;7.55;3.40;;;25.10;64.80;;;;;;5016543;28;20030;-40
2021/06/21 06:19:28;;;;;;;6.68;3.88;;;25.10;64.70;;;;;;5017031;28;20492;-40
2021/06/21 06:21:54;;;;;;;10.00;4.63;;;25.10;64.80;;;;;;5016338;28;20050;-43
2021/06/21 06:24:19;;;;;;;8.35;4.18;;;25.20;64.80;;;;;;5016701;28;20045;-41
2021/06/21 06:26:45;;;;;;;4.38;3.28;;;25.20;64.70;;;;;;5016143;28;20025;-41
2021/06/21 06:29:12;;;;;;;5.90;3.00;;;25.20;64.60;;;;;;5016421;28;20415;-44
2021/06/21 06:31:41;;;;;;;6.28;3.75;;;25.30;64.50;;;;;;5016322;28;20041;-44
2021/06/21 06:34:07;;;;;;;11.25;3.30;;;25.40;64.60;;;;;;5016546;28;20042;-43
2021/06/21 06:36:33;;;;;;;12.63;3.70;;;25.40;64.20;;;;;;5016137;28;20122;-43
2021/06/21 06:38:59;;;;;;;15.63;7.75;;;25.40;64.40;;;;;;5016485;28;20376;-42
2021/06/21 06:41:25;;;;;;;13.82;7.10;;;25.40;64.30;;;;;;5016138;28;20105;-40
2021/06/21 06:43:52;;;;;;;11.75;7.55;;;25.50;64.50;;;;;;5015971;28;20079;-41
2021/06/21 06:46:18;;;;;;;11.95;6.95;;;25.50;64.50;;;;;;5016445;28;20033;-43
2021/06/21 06:48:44;;;;;;;5.90;3.67;;;25.50;64.40;;;;;;5016349;28;20434;-40
2021/06/21 06:51:09;;;;;;;8.57;6.85;;;25.50;64.40;;;;;;5016297;28;20030;-41
2021/06/21 06:53:41;;;;;;;6.05;3.70;;;25.60;64.50;;;;;;5016239;28;20064;-41
2021/06/21 06:58:51;;;;;;;8.45;3.38;;;25.60;64.10;;;;;;5016144;28;20072;-44
2021/06/21 07:01:17;;;;;;;4.68;3.63;;;25.70;64.40;;;;;;5015988;28;20030;-43
2021/06/21 07:03:42;;;;;;;12.35;7.18;;;25.70;64.70;;;;;;5015247;28;20030;-43
2021/06/21 07:06:08;;;;;;;7.28;4.35;;;25.70;63.80;;;;;;5015599;28;20061;-43
2021/06/21 07:08:34;;;;;;;10.25;7.60;;;25.70;63.90;;;;;;5015346;28;20045;-40
2021/06/21 07:10:59;;;;;;;18.13;9.45;;;25.80;64.00;;;;;;5015885;28;20295;-43
2021/06/21 07:13:25;;;;;;;11.55;5.00;;;25.80;64.00;;;;;;5015465;28;20030;-42
2021/06/21 07:15:51;;;;;;;7.95;5.20;;;25.80;63.70;;;;;;5016011;28;20104;-41
2021/06/21 07:18:16;;;;;;;13.98;6.70;;;25.90;64.30;;;;;;5014960;28;20073;-42
2021/06/21 07:20:42;;;;;;;14.13;6.95;;;25.90;64.00;;;;;;5015811;28;20092;-40
2021/06/21 07:23:08;;;;;;;14.18;5.70;;;25.90;64.00;;;;;;5014887;28;20122;-42
2021/06/21 07:25:34;;;;;;;13.43;7.22;;;26.00;63.80;;;;;;5015870;28;20099;-43
2021/06/21 07:27:59;;;;;;;11.88;8.30;;;26.00;64.10;;;;;;5014714;28;20040;-43
2021/06/21 07:30:25;;;;;;;12.20;8.57;;;26.00;63.40;;;;;;5015709;28;20033;-43
2021/06/21 07:32:51;;;;;;;14.85;9.57;;;26.00;63.30;;;;;;5015251;28;20025;-42
2021/06/21 07:35:17;;;;;;;9.45;5.50;;;26.10;62.60;;;;;;5015134;28;20096;-45
2021/06/21 07:37:42;;;;;;;7.90;4.22;;;26.10;62.50;;;;;;5015158;28;20034;-42
2021/06/21 07:40:09;;;;;;;9.50;5.13;;;26.10;62.50;;;;;;5015778;28;20038;-42
2021/06/21 07:42:36;;;;;;;6.90;3.05;;;26.20;62.80;;;;;;5014704;28;20030;-43
2021/06/21 07:45:01;;;;;;;6.30;4.82;;;26.20;62.50;;;;;;5015686;28;20362;-40
2021/06/21 07:47:27;;;;;;;8.90;5.07;;;26.30;62.40;;;;;;5014786;28;20084;-43
2021/06/21 07:49:53;;;;;;;7.45;3.28;;;26.30;62.50;;;;;;5014549;28;20045;-43
2021/06/21 07:52:18;;;;;;;8.10;3.40;;;26.30;62.00;;;;;;5014802;28;20430;-43
2021/06/21 07:54:44;;;;;;;6.40;3.35;;;26.40;61.80;;;;;;5015363;28;20425;-41
2021/06/21 07:57:10;;;;;;;9.90;3.53;;;26.40;61.80;;;;;;5015188;28;20476;-43
2021/06/21 07:59:36;;;;;;;5.97;3.70;;;26.40;62.40;;;;;;5015339;28;20461;-41
2021/06/21 08:02:01;;;;;;;6.53;3.22;;;26.40;61.30;;;;;;5015549;28;20022;-41
2021/06/21 08:04:27;;;;;;;7.75;3.92;;;26.40;61.50;;;;;;5014984;28;20045;-41
2021/06/21 08:06:53;;;;;;;8.20;3.22;;;26.50;60.80;;;;;;5015452;28;20034;-42
2021/06/21 08:09:18;;;;;;;11.55;3.83;;;26.60;60.80;;;;;;5015625;28;20046;-44
2021/06/21 08:11:44;;;;;;;6.50;3.90;;;26.60;60.90;;;;;;5015352;28;20117;-47
2021/06/21 08:14:10;;;;;;;5.78;3.97;;;26.60;60.80;;;;;;5015271;28;20038;-42
2021/06/21 08:16:35;;;;;;;5.20;3.42;;;26.60;61.00;;;;;;5015190;28;20080;-42
2021/06/21 08:19:01;;;;;;;13.27;5.97;;;26.70;61.20;;;;;;5014987;28;20030;-43
2021/06/21 08:21:27;;;;;;;6.70;4.50;;;26.70;61.00;;;;;;5014987;28;20050;-42
2021/06/21 08:23:53;;;;;;;9.90;4.10;;;26.70;60.90;;;;;;5014834;28;20026;-42
2021/06/21 08:26:19;;;;;;;13.85;6.07;;;26.80;60.70;;;;;;5019161;28;20451;-42
2021/06/21 08:28:46;;;;;;;11.10;4.10;;;26.80;60.40;;;;;;5018710;28;20098;-43
2021/06/21 08:31:12;;;;;;;11.05;6.78;;;26.80;60.10;;;;;;5018839;28;20084;-43
2021/06/21 08:33:37;;;;;;;11.30;6.90;;;26.90;60.40;;;;;;5014702;28;20579;-43
2021/06/21 08:36:06;;;;;;;7.40;3.88;;;26.90;60.30;;;;;;5017446;28;20065;-42
2021/06/21 08:38:32;;;;;;;7.88;4.50;;;27.00;60.30;;;;;;5017818;28;20096;-42
2021/06/21 08:40:58;;;;;;;8.52;4.93;;;27.10;60.20;;;;;;5018806;28;20033;-42
2021/06/21 08:43:24;;;;;;;8.50;4.32;;;27.00;59.90;;;;;;5017711;28;20384;-42
2021/06/21 08:45:50;;;;;;;8.98;3.83;;;27.10;60.00;;;;;;5018732;28;20314;-43
2021/06/21 08:48:15;;;;;;;7.60;4.45;;;27.10;60.10;;;;;;5018667;28;20034;-41
2021/06/21 08:50:42;;;;;;;5.75;4.25;;;27.10;59.80;;;;;;5018511;28;20033;-43
2021/06/21 08:53:10;;;;;;;7.47;4.28;;;27.10;59.90;;;;;;5018152;28;20061;-43
2021/06/21 08:55:36;;;;;;;10.77;4.30;;;27.10;60.10;;;;;;5018017;28;20045;-41
2021/06/21 08:58:03;;;;;;;11.02;3.50;;;27.20;60.20;;;;;;5017583;28;20037;-43
2021/06/21 09:00:28;;;;;;;12.27;4.63;;;27.20;60.40;;;;;;5018141;28;20038;-42
2021/06/21 09:02:54;;;;;;;7.65;4.50;;;27.20;60.50;;;;;;5017998;28;20047;-44
2021/06/21 09:05:20;;;;;;;13.20;4.72;;;27.20;60.50;;;;;;5017551;28;20102;-41
2021/06/21 09:07:47;;;;;;;7.22;3.42;;;27.30;60.70;;;;;;5017570;28;20312;-41
2021/06/21 09:10:34;;;;;;;8.07;4.30;;;27.30;61.00;;;;;;5017522;28;20041;-41
2021/06/21 09:13:06;;;;;;;9.07;4.60;;;27.40;60.70;;;;;;5017577;28;20125;-41
2021/06/21 09:15:35;;;;;;;8.88;4.18;;;27.40;60.10;;;;;;5017509;28;20041;-42
2021/06/21 09:18:37;;;;;;;12.85;4.55;;;27.40;59.90;;;;;;5017515;28;20038;-42
2021/06/21 09:21:32;;;;;;;7.28;4.72;;;27.50;60.00;;;;;;5017947;28;20423;-41
2021/06/21 09:24:01;;;;;;;8.35;4.32;;;27.60;60.00;;;;;;5017425;28;20065;-42
2021/06/21 09:26:29;;;;;;;7.63;4.97;;;27.60;60.40;;;;;;5018073;28;20064;-42
2021/06/21 09:28:57;;;;;;;8.80;5.22;;;27.60;60.00;;;;;;5017116;28;20119;-43
2021/06/21 09:31:25;;;;;;;8.50;3.67;;;27.70;60.10;;;;;;5017539;28;20334;-42
2021/06/21 09:34:11;;;;;;;8.65;3.42;;;27.80;60.50;;;;;;5017204;28;20076;-43
2021/06/21 09:36:37;;;;;;;8.68;4.20;;;27.80;60.60;;;;;;5016991;28;20363;-40
2021/06/21 09:39:23;;;;;;;10.18;4.03;;;27.90;60.10;;;;;;5017447;28;20169;-41
2021/06/21 09:42:26;;;;;;;22.23;4.80;;;27.90;60.00;;;;;;5017398;28;20037;-41
2021/06/21 09:44:57;;;;;;;10.35;4.38;;;28.00;59.50;;;;;;5017630;28;20030;-40
2021/06/21 09:47:41;;;;;;;6.43;3.95;;;28.00;59.40;;;;;;5017115;28;20042;-43
2021/06/21 09:50:24;;;;;;;10.88;6.82;;;28.10;59.90;;;;;;5017450;28;20068;-48
2021/06/21 09:53:00;;;;;;;16.58;8.32;;;28.10;59.30;;;;;;5017013;28;20054;-40
2021/06/21 09:55:38;;;;;;;9.00;5.82;;;28.20;59.50;;;;;;5016785;28;20040;-42
2021/06/21 09:58:12;;;;;;;12.35;8.82;;;28.20;59.30;;;;;;5017117;28;20113;-40
2021/06/21 10:00:44;;;;;;;11.65;6.28;;;28.20;59.40;;;;;;5016969;28;20401;-42
2021/06/21 10:03:14;;;;;;;17.73;10.68;;;28.30;59.30;;;;;;5017023;28;20369;-40
2021/06/21 10:06:07;;;;;;;10.45;7.25;;;28.30;59.50;;;;;;5016889;28;20061;-41
2021/06/21 10:08:46;;;;;;;14.35;7.85;;;28.40;59.00;;;;;;5016180;28;20038;-40
2021/06/21 10:11:30;;;;;;;12.45;5.45;;;28.40;58.60;;;;;;5017248;28;20410;-41
2021/06/21 10:13:57;;;;;;;9.55;3.65;;;28.50;58.90;;;;;;5016153;28;20034;-43
2021/06/21 10:16:23;;;;;;;29.23;5.22;;;28.50;58.90;;;;;;5017248;28;20026;-43
2021/06/21 10:18:49;;;;;;;5.72;3.67;;;28.60;59.20;;;;;;5015750;28;20042;-44
2021/06/21 10:21:16;;;;;;;6.45;4.25;;;28.60;58.60;;;;;;5031620;28;20398;-41
2021/06/21 10:23:41;;;;;;;22.65;5.03;;;28.70;58.60;;;;;;5014894;28;20433;-41
2021/06/21 10:26:09;;;;;;;7.57;4.10;;;28.80;58.80;;;;;;5016823;28;20026;-42
2021/06/21 10:28:35;;;;;;;13.95;4.43;;;28.90;58.10;;;;;;5015911;28;20049;-42
2021/06/21 10:31:05;;;;;;;13.63;4.10;;;29.00;58.30;;;;;;5016868;28;20117;-42
2021/06/21 10:33:32;;;;;;;8.65;4.15;;;29.10;57.80;;;;;;5016248;28;20030;-44
2021/06/21 10:35:59;;;;;;;13.13;3.97;;;29.10;57.40;;;;;;5016496;28;20346;-40
2021/06/21 10:38:24;;;;;;;12.13;4.43;;;29.20;56.60;;;;;;5016743;28;20456;-40
2021/06/21 10:40:56;;;;;;;11.63;4.68;;;29.30;56.10;;;;;;5016453;28;20057;-43
2021/06/21 10:43:42;;;;;;;7.07;3.75;;;29.40;55.50;;;;;;5015801;28;20322;-43
2021/06/21 10:46:14;;;;;;;9.63;4.55;;;29.50;55.60;;;;;;5016339;28;20430;-43
2021/06/21 10:49:21;;;;;;;8.82;3.95;;;29.60;55.20;;;;;;5015327;28;20108;-41
2021/06/21 10:51:47;;;;;;;13.95;4.65;;;29.80;54.70;;;;;;4974777;28;20178;-44
2021/06/21 10:54:23;;;;;;;17.48;4.90;;;29.80;54.90;;;;;;5009246;28;20042;-42
2021/06/21 10:56:51;;;;;;;9.57;5.10;;;29.90;54.40;;;;;;5015800;28;20042;-40
2021/06/21 10:59:19;;;;;;;10.10;5.78;;;30.00;54.80;;;;;;5016084;28;20044;-40
2021/06/21 11:01:53;;;;;;;19.65;5.20;;;30.00;54.80;;;;;;5015380;28;20109;-46
2021/06/21 11:04:34;;;;;;;14.13;5.20;;;30.10;54.70;;;;;;5016176;28;20045;-43
2021/06/21 11:07:11;;;;;;;10.82;5.05;;;30.20;54.70;;;;;;5016374;28;20026;-44
2021/06/21 11:09:55;;;;;;;14.38;5.30;;;30.30;54.80;;;;;;5016090;28;20053;-43
2021/06/21 11:12:21;;;;;;;11.85;7.70;;;30.30;54.30;;;;;;5016006;28;20096;-42
2021/06/21 11:15:08;;;;;;;14.77;5.95;;;30.40;54.10;;;;;;5016226;28;20357;-45
2021/06/21 11:17:45;;;;;;;13.63;5.35;;;30.50;53.90;;;;;;5015755;28;20067;-41
2021/06/21 11:20:32;;;;;;;14.10;5.35;;;30.50;53.50;;;;;;5015773;28;20069;-41
2021/06/21 11:23:01;;;;;;;15.18;5.65;;;30.60;54.00;;;;;;5016000;28;20045;-40
2021/06/21 11:25:37;;;;;;;15.55;6.50;;;30.60;53.30;;;;;;5016090;28;20022;-42
2021/06/21 11:28:04;;;;;;;19.27;6.53;;;30.70;53.50;;;;;;5014446;28;20068;-40
2021/06/21 11:30:40;;;;;;;14.25;6.38;;;30.80;53.40;;;;;;5015612;28;20026;-40
2021/06/21 11:33:14;;;;;;;14.15;6.00;;;30.90;53.10;;;;;;5015255;28;20041;-41
2021/06/21 11:35:46;;;;;;;18.00;6.35;;;31.00;53.10;;;;;;5015881;28;20022;-41
2021/06/21 11:38:20;;;;;;;15.05;6.18;;;31.10;53.20;;;;;;5015553;28;20066;-44
2021/06/21 11:40:47;;;;;;;15.15;6.45;;;31.20;52.80;;;;;;5016254;28;20393;-41
2021/06/21 11:43:15;;;;;;;16.02;5.75;;;31.30;52.60;;;;;;5014788;28;20164;-42
2021/06/21 11:45:51;;;;;;;13.48;6.38;;;31.40;52.40;;;;;;5015628;28;20021;-41
2021/06/21 11:48:33;;;;;;;14.18;5.68;;;31.60;52.30;;;;;;5015423;28;20115;-44
2021/06/21 11:51:01;;;;;;;11.70;5.80;;;31.70;52.40;;;;;;5016000;28;20353;-43
2021/06/21 11:53:28;;;;;;;11.75;5.13;;;31.90;51.80;;;;;;5015243;28;20054;-42
2021/06/21 11:55:55;;;;;;;11.88;6.32;;;32.00;51.40;;;;;;5015621;28;20105;-43
2021/06/21 11:58:33;;;;;;;14.45;6.00;;;32.10;51.20;;;;;;5016148;28;20044;-42
2021/06/21 12:01:13;;;;;;;12.80;5.10;;;32.20;50.80;;;;;;5019691;28;20022;-42
2021/06/21 12:03:43;;;;;;;13.88;5.15;;;32.30;50.20;;;;;;5019386;28;20449;-43
2021/06/21 12:06:18;;;;;;;11.98;5.47;;;32.40;49.60;;;;;;5034976;28;20355;-42
2021/06/21 12:08:44;;;;;;;14.93;5.20;;;32.60;49.50;;;;;;5018771;28;20034;-45
2021/06/21 12:11:17;;;;;;;10.05;5.47;;;32.70;49.80;;;;;;5019723;28;20128;-40
2021/06/21 12:13:53;;;;;;;17.83;7.07;;;32.80;49.30;;;;;;5018995;28;20421;-43
2021/06/21 12:16:19;;;;;;;17.33;6.03;;;32.90;49.40;;;;;;5019499;28;20042;-47
2021/06/21 12:18:55;;;;;;;10.98;5.82;;;33.00;49.20;;;;;;5016042;28;20330;-43
2021/06/21 12:21:39;;;;;;;11.73;5.03;;;33.20;49.10;;;;;;5018076;28;20432;-42
2021/06/21 12:24:18;;;;;;;12.63;4.90;;;33.40;49.00;;;;;;5018678;28;20299;-42
2021/06/21 12:26:46;;;;;;;10.95;5.00;;;33.60;48.50;;;;;;5018506;28;20018;-41
2021/06/21 12:29:26;;;;;;;12.85;5.85;;;33.70;47.90;;;;;;5018283;28;20026;-40
2021/06/21 12:32:04;;;;;;;16.30;4.70;;;33.90;47.80;;;;;;5018887;28;20365;-41
2021/06/21 12:34:44;;;;;;;13.25;5.28;;;34.00;47.60;;;;;;5018218;28;20418;-42
2021/06/21 12:37:17;;;;;;;10.95;4.72;;;34.20;47.50;;;;;;5018837;28;20434;-42
2021/06/21 12:39:44;;;;;;;14.45;7.43;;;34.30;47.50;;;;;;5018197;28;20037;-42
2021/06/21 12:42:12;;;;;;;9.23;4.57;;;34.40;47.00;;;;;;5018474;28;20037;-42
2021/06/21 12:44:39;;;;;;;10.95;5.90;;;34.50;46.80;;;;;;5018651;28;20025;-43
2021/06/21 12:47:20;;;;;;;12.90;6.68;;;34.70;46.30;;;;;;5018416;28;20037;-41
2021/06/21 12:49:47;;;;;;;13.63;8.32;;;34.80;46.10;;;;;;5018252;28;20034;-39
2021/06/21 12:52:13;;;;;;;15.05;5.53;;;34.80;45.90;;;;;;5018785;28;20040;-39
2021/06/21 12:54:40;;;;;;;9.45;5.35;;;34.90;45.90;;;;;;5018431;28;20037;-41
2021/06/21 12:57:06;;;;;;;11.30;5.38;;;35.10;46.10;;;;;;5018159;28;20125;-40